Time;durP1;ratioP1;P1;durP2;ratioP2;P2;SDS_P1;SDS_P2;PMS_P1;PMS_P2;Temp;Humidity;BMP_temperature;BMP_pressure;BME280_temperature;BME280_humidity;BME280_pressure;Samples;Min_cycle;Max_cycle;Signal;HPM_P1;HPM_P2
2023/12/11 00:01:16;;;;;;;1.17;0.47;;;14.40;74.00;;;;;;2500536;55;20966;-70
2023/12/11 00:03:42;;;;;;;0.77;0.30;;;14.40;74.00;;;;;;2256136;56;21007;-70
2023/12/11 00:06:09;;;;;;;0.95;0.40;;;14.40;73.90;;;;;;2236001;56;20989;-71
2023/12/11 00:08:36;;;;;;;2.10;0.40;;;14.40;74.30;;;;;;2469974;55;21555;-70
2023/12/11 00:11:02;;;;;;;0.55;0.25;;;14.40;74.00;;;;;;2494443;55;20962;-70
2023/12/11 00:13:29;;;;;;;2.17;0.62;;;14.40;74.00;;;;;;2260687;55;20934;-71
2023/12/11 00:15:55;;;;;;;2.47;0.50;;;14.40;73.80;;;;;;2488348;55;21598;-71
2023/12/11 00:18:21;;;;;;;1.27;0.40;;;14.30;73.80;;;;;;2259804;56;20970;-70
2023/12/11 00:20:48;;;;;;;2.85;0.57;;;14.30;73.90;;;;;;2260200;56;21010;-71
2023/12/11 00:23:14;;;;;;;1.37;0.40;;;14.30;74.00;;;;;;2259560;56;21374;-70
2023/12/11 00:25:46;;;;;;;2.30;0.52;;;14.30;74.20;;;;;;2488829;54;20994;-70
2023/12/11 00:28:14;;;;;;;1.42;0.37;;;14.30;74.00;;;;;;2470392;54;21016;-70
2023/12/11 00:30:40;;;;;;;2.40;0.47;;;14.30;74.20;;;;;;2260859;56;21010;-70
2023/12/11 00:33:10;;;;;;;1.15;0.43;;;14.30;74.20;;;;;;2259557;56;20946;-71
2023/12/11 00:35:36;;;;;;;2.05;0.40;;;14.30;74.20;;;;;;2260174;55;20943;-70
2023/12/11 00:38:02;;;;;;;1.00;0.30;;;14.30;74.40;;;;;;2488099;55;20966;-69
2023/12/11 00:40:30;;;;;;;1.27;0.35;;;14.30;74.50;;;;;;2292138;56;20995;-70
2023/12/11 00:42:59;;;;;;;1.20;0.43;;;14.30;74.60;;;;;;2299513;55;20999;-69
2023/12/11 00:45:28;;;;;;;1.83;0.35;;;14.30;74.60;;;;;;2300517;56;21319;-71
2023/12/11 00:47:55;;;;;;;1.70;0.50;;;14.30;74.70;;;;;;2300554;55;21027;-69
2023/12/11 00:50:21;;;;;;;1.55;0.40;;;14.30;74.90;;;;;;2536131;54;20971;-70
2023/12/11 00:52:48;;;;;;;1.45;0.50;;;14.30;74.90;;;;;;2299709;55;20964;-70
2023/12/11 00:55:14;;;;;;;1.17;0.55;;;14.40;75.10;;;;;;2536243;54;21087;-70
2023/12/11 00:57:41;;;;;;;0.80;0.40;;;14.40;75.30;;;;;;2536857;54;20955;-71
2023/12/11 01:00:10;;;;;;;1.45;0.40;;;14.30;74.80;;;;;;2299014;56;21283;-70
2023/12/11 01:02:36;;;;;;;1.98;0.60;;;14.40;74.90;;;;;;2535652;54;21015;-70
2023/12/11 01:05:02;;;;;;;1.08;0.30;;;14.40;74.80;;;;;;2536440;54;21146;-70
2023/12/11 01:07:30;;;;;;;1.45;0.30;;;14.40;74.70;;;;;;2532609;54;20935;-69
2023/12/11 01:09:56;;;;;;;1.05;0.40;;;14.40;74.80;;;;;;2298638;55;21048;-70
2023/12/11 01:12:22;;;;;;;0.85;0.30;;;14.40;74.80;;;;;;2298841;55;21019;-70
2023/12/11 01:14:52;;;;;;;1.40;0.50;;;14.40;74.80;;;;;;2536036;54;21753;-70
2023/12/11 01:17:21;;;;;;;0.82;0.30;;;14.40;74.70;;;;;;2298525;56;21584;-70
2023/12/11 01:19:49;;;;;;;1.60;0.50;;;14.40;74.70;;;;;;2294899;55;21008;-71
2023/12/11 01:22:16;;;;;;;2.10;0.50;;;14.40;74.70;;;;;;2288598;55;21440;-70
2023/12/11 01:24:43;;;;;;;1.33;0.43;;;14.50;74.70;;;;;;2291765;56;20948;-70
2023/12/11 01:27:09;;;;;;;1.77;0.45;;;14.50;74.70;;;;;;2535766;54;21299;-70
2023/12/11 01:29:36;;;;;;;1.00;0.47;;;14.60;74.80;;;;;;2536251;54;21003;-70
2023/12/11 01:32:04;;;;;;;1.75;0.43;;;14.50;74.70;;;;;;2535928;54;21068;-70
2023/12/11 01:34:31;;;;;;;0.90;0.37;;;14.50;74.60;;;;;;2299454;56;21027;-70
2023/12/11 01:37:00;;;;;;;0.43;0.25;;;14.50;74.60;;;;;;2298763;56;20956;-70
2023/12/11 01:39:26;;;;;;;1.37;0.45;;;14.50;74.60;;;;;;2534629;54;21377;-70
2023/12/11 01:41:52;;;;;;;1.12;0.30;;;14.50;74.30;;;;;;2298566;56;21067;-70
2023/12/11 01:44:18;;;;;;;0.70;0.30;;;14.50;74.20;;;;;;2533562;54;21184;-70
2023/12/11 01:46:46;;;;;;;0.47;0.20;;;14.40;74.20;;;;;;2285268;55;21208;-71
2023/12/11 01:49:13;;;;;;;1.20;0.40;;;14.40;74.30;;;;;;2521489;54;21013;-69
2023/12/11 01:51:39;;;;;;;0.90;0.30;;;14.50;74.40;;;;;;2295994;56;20956;-73
2023/12/11 01:54:06;;;;;;;0.88;0.30;;;14.50;74.30;;;;;;2259658;55;21791;-72
2023/12/11 01:56:32;;;;;;;0.70;0.30;;;14.40;74.10;;;;;;2505375;54;20936;-70
2023/12/11 01:58:59;;;;;;;1.77;0.30;;;14.40;74.10;;;;;;2299565;56;20960;-70
2023/12/11 02:01:25;;;;;;;1.10;0.43;;;14.40;74.20;;;;;;2299887;56;20975;-72
2023/12/11 02:03:52;;;;;;;0.60;0.30;;;14.40;74.20;;;;;;2535431;54;21003;-70
2023/12/11 02:06:18;;;;;;;0.68;0.30;;;14.40;74.30;;;;;;2298142;55;21011;-69
2023/12/11 02:08:45;;;;;;;1.25;0.40;;;14.40;74.40;;;;;;2299503;55;21039;-73
2023/12/11 02:11:12;;;;;;;0.52;0.22;;;14.40;74.50;;;;;;2299129;56;21406;-69
2023/12/11 02:13:39;;;;;;;1.10;0.30;;;14.40;74.70;;;;;;2280423;55;20928;-69
2023/12/11 02:16:06;;;;;;;0.68;0.22;;;14.40;74.70;;;;;;2285596;55;20980;-72
2023/12/11 02:18:32;;;;;;;1.67;0.30;;;14.40;74.70;;;;;;2506850;54;22164;-69
2023/12/11 02:20:59;;;;;;;2.00;0.28;;;14.40;74.80;;;;;;2244874;55;21065;-70
2023/12/11 02:23:46;;;;;;;1.55;0.32;;;14.40;74.90;;;;;;2276134;54;20971;-70
2023/12/11 02:26:18;;;;;;;0.75;0.30;;;14.40;74.70;;;;;;2264352;56;20979;-68
2023/12/11 02:28:44;;;;;;;0.93;0.30;;;14.40;74.90;;;;;;2260246;55;21038;-68
2023/12/11 02:31:11;;;;;;;1.02;0.30;;;14.40;75.00;;;;;;2260250;55;21298;-70
2023/12/11 02:33:37;;;;;;;0.90;0.32;;;14.40;75.00;;;;;;2259928;55;21006;-70
2023/12/11 02:36:05;;;;;;;0.60;0.30;;;14.40;75.20;;;;;;2259519;56;21058;-70
2023/12/11 02:38:31;;;;;;;0.70;0.25;;;14.40;75.10;;;;;;2259387;56;21030;-70
2023/12/11 02:40:57;;;;;;;0.50;0.30;;;14.40;75.20;;;;;;2259938;56;20970;-70
2023/12/11 02:43:25;;;;;;;0.75;0.30;;;14.50;75.40;;;;;;2259791;56;20915;-73
2023/12/11 02:45:51;;;;;;;0.95;0.30;;;14.40;75.30;;;;;;2488973;54;20962;-69
2023/12/11 02:48:18;;;;;;;0.65;0.30;;;14.50;75.40;;;;;;2488055;54;21401;-70
2023/12/11 02:50:45;;;;;;;0.30;0.28;;;14.50;75.50;;;;;;2260629;56;21014;-72
2023/12/11 02:53:12;;;;;;;0.73;0.20;;;14.50;75.50;;;;;;2253331;55;21032;-73
2023/12/11 02:55:38;;;;;;;0.30;0.20;;;14.50;75.50;;;;;;2255303;56;21428;-72
2023/12/11 02:58:04;;;;;;;0.75;0.30;;;14.50;75.50;;;;;;2260214;56;21040;-69
2023/12/11 03:00:31;;;;;;;0.15;0.15;;;14.60;75.60;;;;;;2488551;54;21065;-72
2023/12/11 03:02:57;;;;;;;1.33;0.20;;;14.60;75.60;;;;;;2259393;56;20993;-72
2023/12/11 03:05:23;;;;;;;0.75;0.20;;;14.60;75.60;;;;;;2249850;56;21620;-71
2023/12/11 03:07:52;;;;;;;0.75;0.20;;;14.60;75.60;;;;;;2226885;56;20941;-72
2023/12/11 03:10:18;;;;;;;0.77;0.30;;;14.60;75.60;;;;;;2488211;55;21022;-70
2023/12/11 03:12:44;;;;;;;0.32;0.13;;;14.70;75.70;;;;;;2488693;55;21002;-69
2023/12/11 03:15:10;;;;;;;1.40;0.30;;;14.70;75.70;;;;;;2455851;55;21005;-72
2023/12/11 03:17:38;;;;;;;0.90;0.30;;;14.70;75.70;;;;;;2265456;56;20977;-69
2023/12/11 03:20:08;;;;;;;0.70;0.20;;;14.70;75.50;;;;;;2490682;55;21014;-70
2023/12/11 03:22:34;;;;;;;0.37;0.17;;;14.70;75.50;;;;;;2262448;55;21046;-70
2023/12/11 03:25:00;;;;;;;0.73;0.25;;;14.70;75.40;;;;;;2275667;55;20984;-72
2023/12/11 03:27:27;;;;;;;1.33;0.30;;;14.80;75.40;;;;;;2495319;54;21011;-70
2023/12/11 03:29:53;;;;;;;0.73;0.30;;;14.80;75.30;;;;;;2260322;55;20943;-70
2023/12/11 03:32:19;;;;;;;1.15;0.30;;;14.80;75.20;;;;;;2260086;55;21102;-69
2023/12/11 03:34:46;;;;;;;0.60;0.20;;;14.80;75.30;;;;;;2260419;56;20995;-72
2023/12/11 03:37:12;;;;;;;2.10;0.22;;;14.80;75.30;;;;;;2488655;54;20974;-72
2023/12/11 03:39:39;;;;;;;0.82;0.30;;;14.80;75.20;;;;;;2260261;56;20994;-71
2023/12/11 03:42:05;;;;;;;1.15;0.20;;;14.80;75.10;;;;;;2488707;55;21007;-71
2023/12/11 03:44:31;;;;;;;1.15;0.30;;;14.80;75.00;;;;;;2259826;55;20980;-71
2023/12/11 03:46:58;;;;;;;0.40;0.20;;;14.80;75.00;;;;;;2260236;56;21498;-70
2023/12/11 03:49:24;;;;;;;0.35;0.20;;;14.80;74.90;;;;;;2488106;55;21038;-71
2023/12/11 03:51:51;;;;;;;1.10;0.30;;;14.80;75.00;;;;;;2504921;54;20927;-71
2023/12/11 03:54:19;;;;;;;1.05;0.10;;;14.80;74.90;;;;;;2290738;56;20988;-70
2023/12/11 03:56:45;;;;;;;0.90;0.30;;;14.90;75.00;;;;;;2298793;55;20963;-72
2023/12/11 03:59:13;;;;;;;0.30;0.13;;;14.80;74.90;;;;;;2299735;55;21015;-69
2023/12/11 04:01:40;;;;;;;0.75;0.28;;;14.80;74.90;;;;;;2299229;55;21326;-69
2023/12/11 04:04:06;;;;;;;0.47;0.20;;;14.80;74.90;;;;;;2536121;54;21641;-71
2023/12/11 04:06:35;;;;;;;0.37;0.22;;;14.80;75.00;;;;;;2289097;56;21003;-72
2023/12/11 04:09:01;;;;;;;0.40;0.10;;;14.90;75.00;;;;;;2296886;55;20979;-69
2023/12/11 04:11:27;;;;;;;0.57;0.28;;;14.90;75.00;;;;;;2535565;54;21023;-69
2023/12/11 04:13:55;;;;;;;0.50;0.20;;;14.80;74.90;;;;;;2536399;54;21003;-70
2023/12/11 04:16:22;;;;;;;0.28;0.20;;;14.90;75.00;;;;;;2299738;55;21003;-72
2023/12/11 04:18:48;;;;;;;0.70;0.25;;;14.80;74.90;;;;;;2535282;54;20955;-72
2023/12/11 04:21:15;;;;;;;0.77;0.20;;;14.90;75.00;;;;;;2299000;56;21307;-70
2023/12/11 04:23:42;;;;;;;0.73;0.28;;;14.90;74.90;;;;;;2535947;54;20982;-69
2023/12/11 04:26:08;;;;;;;1.50;0.30;;;14.90;74.90;;;;;;2299342;56;21503;-70
2023/12/11 04:28:34;;;;;;;0.82;0.20;;;14.80;74.70;;;;;;2535728;54;20955;-70
2023/12/11 04:31:01;;;;;;;0.40;0.13;;;14.80;74.70;;;;;;2297835;56;21275;-71
2023/12/11 04:33:28;;;;;;;0.47;0.30;;;14.90;74.80;;;;;;2299304;56;21472;-73
2023/12/11 04:35:54;;;;;;;0.82;0.50;;;14.80;74.60;;;;;;2299556;55;21019;-70
2023/12/11 04:38:21;;;;;;;1.30;0.37;;;14.90;74.70;;;;;;2290616;56;21049;-70
2023/12/11 04:40:47;;;;;;;0.80;0.20;;;14.90;74.70;;;;;;2530281;54;21861;-69
2023/12/11 04:43:13;;;;;;;0.32;0.20;;;14.90;74.70;;;;;;2299299;55;21042;-73
2023/12/11 04:45:39;;;;;;;1.15;0.30;;;14.80;74.60;;;;;;2298702;55;21935;-69
2023/12/11 04:48:06;;;;;;;0.47;0.20;;;14.80;74.60;;;;;;2535001;54;21056;-69
2023/12/11 04:50:32;;;;;;;0.32;0.20;;;14.90;74.60;;;;;;2288510;55;21016;-71
2023/12/11 04:53:04;;;;;;;0.70;0.30;;;14.90;74.60;;;;;;2518317;54;20968;-70
2023/12/11 04:55:31;;;;;;;2.78;0.32;;;14.90;74.50;;;;;;2297956;56;21040;-73
2023/12/11 04:57:58;;;;;;;1.02;0.30;;;14.90;74.50;;;;;;2529682;54;21083;-69
2023/12/11 05:00:31;;;;;;;1.02;0.22;;;14.80;74.40;;;;;;2284559;56;21052;-70
2023/12/11 05:03:10;;;;;;;0.98;0.30;;;14.80;74.40;;;;;;2279365;56;21056;-69
2023/12/11 05:05:51;;;;;;;0.22;0.17;;;14.80;74.20;;;;;;2525006;54;20954;-72
2023/12/11 05:08:26;;;;;;;1.17;0.30;;;14.80;74.30;;;;;;2504391;53;20968;-70
2023/12/11 05:10:58;;;;;;;1.58;0.32;;;14.70;74.00;;;;;;2245920;57;21019;-70
2023/12/11 05:13:35;;;;;;;0.77;0.30;;;14.80;74.10;;;;;;2291457;55;21094;-73
2023/12/11 05:16:14;;;;;;;1.73;0.40;;;14.90;74.30;;;;;;2516864;54;21762;-70
2023/12/11 05:18:51;;;;;;;0.45;0.28;;;14.80;74.30;;;;;;2498683;54;20971;-72
2023/12/11 05:21:35;;;;;;;1.90;0.30;;;14.70;74.30;;;;;;2502398;54;20964;-69
2023/12/11 05:24:05;;;;;;;0.52;0.30;;;14.70;74.10;;;;;;2257571;55;21580;-71
2023/12/11 05:26:37;;;;;;;1.52;0.40;;;14.70;74.00;;;;;;2462504;54;21789;-70
2023/12/11 05:29:06;;;;;;;0.85;0.20;;;14.70;74.20;;;;;;2517634;55;20932;-70
2023/12/11 05:31:38;;;;;;;1.73;0.32;;;14.70;74.20;;;;;;2495274;55;21011;-69
2023/12/11 05:34:22;;;;;;;0.68;0.28;;;14.70;74.20;;;;;;2491413;55;20965;-72
2023/12/11 05:37:03;;;;;;;1.12;0.35;;;14.70;74.20;;;;;;2471744;55;21047;-70
2023/12/11 05:39:37;;;;;;;1.40;0.40;;;14.70;74.20;;;;;;2469512;55;21034;-71
2023/12/11 05:42:11;;;;;;;2.05;0.40;;;14.70;74.00;;;;;;2269269;56;20984;-71
2023/12/11 05:44:50;;;;;;;0.77;0.30;;;14.70;74.00;;;;;;2518458;54;20960;-70
2023/12/11 05:47:25;;;;;;;0.88;0.35;;;14.70;74.00;;;;;;2264941;56;20999;-70
2023/12/11 05:49:57;;;;;;;0.60;0.30;;;14.70;74.00;;;;;;2266623;55;20936;-70
2023/12/11 05:52:29;;;;;;;1.65;0.40;;;14.70;74.20;;;;;;2490601;55;21117;-73
2023/12/11 05:55:05;;;;;;;0.37;0.20;;;14.70;74.30;;;;;;2473949;55;21333;-69
2023/12/11 05:57:40;;;;;;;0.77;0.30;;;14.70;74.40;;;;;;2273624;56;21045;-69
2023/12/11 06:00:14;;;;;;;0.55;0.30;;;14.60;74.30;;;;;;2487696;54;20943;-70
2023/12/11 06:02:57;;;;;;;0.68;0.20;;;14.70;74.50;;;;;;2518546;54;21576;-71
2023/12/11 06:05:44;;;;;;;;;;;;;;;;;;;;;
2023/12/11 06:08:14;;;;;;;0.68;0.30;;;14.70;74.60;;;;;;2509479;55;20964;-70
2023/12/11 06:10:53;;;;;;;0.50;0.25;;;14.70;74.70;;;;;;2472354;55;20977;-70
2023/12/11 06:13:28;;;;;;;0.47;0.22;;;14.70;74.60;;;;;;2488399;55;21051;-70
2023/12/11 06:16:04;;;;;;;0.60;0.20;;;14.70;74.80;;;;;;2265352;56;21847;-69
2023/12/11 06:18:36;;;;;;;1.85;0.30;;;14.70;74.70;;;;;;2508660;55;21027;-69
2023/12/11 06:21:18;;;;;;;0.40;0.20;;;14.70;75.00;;;;;;2259303;56;21400;-70
2023/12/11 06:23:46;;;;;;;1.85;0.30;;;14.80;74.70;;;;;;2496021;55;20968;-70
2023/12/11 06:26:42;;;;;;;1.73;0.35;;;14.80;75.00;;;;;;2494151;55;21025;-71
2023/12/11 06:29:34;;;;;;;0.73;0.20;;;14.80;74.60;;;;;;2273185;56;21341;-68
2023/12/11 06:32:01;;;;;;;1.12;0.30;;;14.80;75.00;;;;;;2270240;56;20917;-71
2023/12/11 06:34:30;;;;;;;1.10;0.30;;;14.80;75.00;;;;;;2287331;55;21296;-70
2023/12/11 06:37:16;;;;;;;0.45;0.20;;;14.90;75.10;;;;;;2504724;54;20964;-71
2023/12/11 06:39:48;;;;;;;0.62;0.30;;;14.90;75.20;;;;;;2261694;55;21009;-71
2023/12/11 06:42:24;;;;;;;0.52;0.20;;;14.90;75.20;;;;;;2281532;55;21782;-70
2023/12/11 06:44:53;;;;;;;1.02;0.20;;;14.90;75.20;;;;;;2520174;55;21047;-73
2023/12/11 06:47:22;;;;;;;0.65;0.20;;;14.90;75.20;;;;;;2520259;55;20952;-69
2023/12/11 06:49:48;;;;;;;0.55;0.25;;;14.90;74.90;;;;;;2483155;55;21021;-72
2023/12/11 06:52:15;;;;;;;1.48;0.32;;;14.90;75.00;;;;;;2279014;55;21279;-69
2023/12/11 06:54:43;;;;;;;0.98;0.40;;;14.80;74.90;;;;;;2289440;55;21016;-70
2023/12/11 06:57:11;;;;;;;1.17;0.47;;;15.00;75.00;;;;;;2285988;56;21335;-70
2023/12/11 06:59:38;;;;;;;2.40;0.60;;;15.00;75.00;;;;;;2286343;55;21368;-70
2023/12/11 07:02:04;;;;;;;0.95;0.32;;;15.00;74.90;;;;;;2284918;56;21612;-70
2023/12/11 07:04:31;;;;;;;1.65;0.40;;;15.00;74.80;;;;;;2286210;56;20999;-72
2023/12/11 07:06:57;;;;;;;1.60;0.50;;;15.00;74.80;;;;;;2519086;55;20979;-72
2023/12/11 07:09:24;;;;;;;1.42;0.40;;;15.10;74.80;;;;;;2252903;56;21459;-71
2023/12/11 07:11:52;;;;;;;1.70;0.40;;;15.00;74.60;;;;;;2285204;56;20968;-72
2023/12/11 07:14:18;;;;;;;1.15;0.40;;;15.10;74.70;;;;;;2520390;55;21010;-69
2023/12/11 07:16:50;;;;;;;0.82;0.30;;;15.20;74.80;;;;;;2285262;56;21912;-69
2023/12/11 07:19:19;;;;;;;0.82;0.32;;;15.10;74.50;;;;;;2270291;56;20950;-71
2023/12/11 07:21:45;;;;;;;0.95;0.30;;;15.10;74.60;;;;;;2500419;55;21367;-69
2023/12/11 07:24:12;;;;;;;1.87;0.50;;;15.10;74.70;;;;;;2262675;56;21270;-70
2023/12/11 07:26:38;;;;;;;2.10;0.80;;;15.10;74.70;;;;;;2508600;55;21477;-70
2023/12/11 07:29:07;;;;;;;2.55;0.70;;;15.10;74.70;;;;;;2285263;56;21259;-71
2023/12/11 07:31:33;;;;;;;1.10;0.43;;;15.10;74.70;;;;;;2516711;55;21684;-71
2023/12/11 07:34:00;;;;;;;1.65;0.60;;;15.10;74.80;;;;;;2493214;55;21145;-70
2023/12/11 07:36:27;;;;;;;2.45;0.70;;;15.10;74.80;;;;;;2505887;54;21842;-69
2023/12/11 07:38:53;;;;;;;1.73;0.60;;;15.10;74.80;;;;;;2490921;54;20973;-68
2023/12/11 07:41:20;;;;;;;0.90;0.40;;;15.20;75.00;;;;;;2506141;54;20958;-71
2023/12/11 07:43:47;;;;;;;1.62;0.65;;;15.20;75.00;;;;;;2260479;55;20984;-69
2023/12/11 07:46:20;;;;;;;2.75;0.88;;;15.20;75.00;;;;;;2500108;55;21002;-71
2023/12/11 07:48:46;;;;;;;1.42;0.60;;;15.20;74.90;;;;;;2272201;56;20979;-69
2023/12/11 07:51:25;;;;;;;2.22;0.68;;;15.20;75.10;;;;;;2286669;56;21274;-70
2023/12/11 07:53:52;;;;;;;1.87;0.57;;;15.20;74.60;;;;;;2519261;54;21774;-70
2023/12/11 07:56:22;;;;;;;1.80;0.70;;;15.20;74.90;;;;;;2285871;56;21000;-70
2023/12/11 07:58:50;;;;;;;2.42;0.70;;;15.40;75.00;;;;;;2475846;55;20965;-71
2023/12/11 08:01:16;;;;;;;2.20;0.65;;;15.30;75.00;;;;;;2519945;55;21359;-69
2023/12/11 08:03:43;;;;;;;1.40;0.50;;;15.30;75.00;;;;;;2520652;55;21456;-71
2023/12/11 08:06:10;;;;;;;2.42;0.60;;;15.40;75.10;;;;;;2519407;55;20996;-72
2023/12/11 08:08:40;;;;;;;1.10;0.47;;;15.30;75.00;;;;;;2286124;56;21059;-69
2023/12/11 08:11:20;;;;;;;0.82;0.30;;;15.30;75.00;;;;;;2502061;55;22042;-70
2023/12/11 08:13:50;;;;;;;0.82;0.30;;;15.30;74.50;;;;;;2268902;56;20940;-69
2023/12/11 08:16:16;;;;;;;0.62;0.30;;;15.30;74.80;;;;;;2285736;56;20996;-71
2023/12/11 08:18:46;;;;;;;1.52;0.40;;;15.40;75.10;;;;;;2286505;56;20928;-70
2023/12/11 08:21:18;;;;;;;0.82;0.37;;;15.40;75.10;;;;;;2485650;55;21347;-69
2023/12/11 08:23:44;;;;;;;2.15;0.47;;;15.30;75.00;;;;;;2480043;55;21064;-73
2023/12/11 08:26:11;;;;;;;1.23;0.40;;;15.40;75.00;;;;;;2479000;55;21006;-72
2023/12/11 08:28:37;;;;;;;0.98;0.40;;;15.40;75.00;;;;;;2260268;56;20973;-72
2023/12/11 08:31:04;;;;;;;3.20;0.90;;;15.40;74.90;;;;;;2263668;55;20996;-73
2023/12/11 08:33:30;;;;;;;1.87;0.80;;;15.40;74.90;;;;;;2453326;54;21233;-71
2023/12/11 08:35:56;;;;;;;2.97;1.10;;;15.40;74.90;;;;;;2488397;55;20954;-70
2023/12/11 08:38:23;;;;;;;1.87;0.80;;;15.40;74.80;;;;;;2489630;55;21049;-70
2023/12/11 08:40:51;;;;;;;9.68;4.00;;;15.40;74.80;;;;;;2489140;55;21461;-70
2023/12/11 08:43:18;;;;;;;10.43;3.80;;;15.50;74.80;;;;;;2264067;55;20986;-70
2023/12/11 08:45:44;;;;;;;7.43;2.53;;;15.50;75.50;;;;;;2257384;56;20975;-73
2023/12/11 08:48:10;;;;;;;5.78;2.45;;;15.50;74.70;;;;;;2250697;56;22515;-70
2023/12/11 08:50:37;;;;;;;4.75;1.50;;;15.50;74.70;;;;;;2248949;56;21577;-70
2023/12/11 08:53:03;;;;;;;4.22;1.55;;;15.50;74.70;;;;;;2262091;55;21416;-70
2023/12/11 08:55:30;;;;;;;5.15;1.90;;;15.50;74.60;;;;;;2258566;55;21007;-70
2023/12/11 08:57:56;;;;;;;4.12;1.50;;;15.50;74.60;;;;;;2234540;56;21656;-70
2023/12/11 09:00:25;;;;;;;2.50;1.10;;;15.50;74.50;;;;;;2487969;55;20986;-70
2023/12/11 09:02:55;;;;;;;2.92;1.12;;;15.50;74.60;;;;;;2260786;56;21047;-69
2023/12/11 09:05:21;;;;;;;2.10;0.82;;;15.50;74.30;;;;;;2494197;55;21030;-69
2023/12/11 09:07:53;;;;;;;3.03;0.62;;;15.50;74.50;;;;;;2260464;55;21459;-70
2023/12/11 09:10:23;;;;;;;2.65;0.77;;;15.50;74.60;;;;;;2233121;56;21050;-70
2023/12/11 09:12:50;;;;;;;5.20;0.60;;;15.50;74.60;;;;;;2476593;55;21456;-70
2023/12/11 09:15:17;;;;;;;1.10;0.50;;;15.50;74.60;;;;;;2482606;55;21002;-70
2023/12/11 09:17:43;;;;;;;1.83;0.50;;;15.50;74.50;;;;;;2489047;55;21010;-70
2023/12/11 09:20:11;;;;;;;1.90;0.50;;;15.50;74.50;;;;;;2489217;55;20963;-70
2023/12/11 09:22:40;;;;;;;2.17;0.82;;;15.50;74.40;;;;;;2494981;55;21034;-70
2023/12/11 09:25:06;;;;;;;1.45;0.43;;;15.50;74.30;;;;;;2488154;55;21010;-69
2023/12/11 09:27:37;;;;;;;1.62;0.50;;;15.50;74.40;;;;;;2260369;55;20967;-70
2023/12/11 09:30:05;;;;;;;1.08;0.47;;;15.50;74.30;;;;;;2262276;55;20994;-70
2023/12/11 09:32:32;;;;;;;1.30;0.40;;;15.60;74.40;;;;;;2260801;55;21002;-69
2023/12/11 09:34:59;;;;;;;1.58;0.60;;;15.60;75.20;;;;;;2447122;55;20935;-70
2023/12/11 09:37:25;;;;;;;1.48;0.62;;;15.50;74.40;;;;;;2488524;55;21749;-70
2023/12/11 09:39:52;;;;;;;1.40;0.43;;;15.60;74.50;;;;;;2275200;55;20954;-70
2023/12/11 09:42:18;;;;;;;1.75;0.52;;;15.60;74.30;;;;;;2286461;55;20971;-69
2023/12/11 09:44:46;;;;;;;1.58;0.50;;;15.60;74.30;;;;;;2297251;56;21057;-70
2023/12/11 09:47:34;;;;;;;1.75;0.70;;;15.60;74.20;;;;;;2289782;56;20960;-69
2023/12/11 09:50:00;;;;;;;2.25;0.70;;;15.60;74.00;;;;;;2488237;55;21002;-69
2023/12/11 09:52:27;;;;;;;1.12;0.40;;;15.60;74.30;;;;;;2259861;56;21846;-69
2023/12/11 09:54:53;;;;;;;1.25;0.50;;;15.60;74.10;;;;;;2253516;56;20960;-70
2023/12/11 09:57:20;;;;;;;2.10;0.77;;;15.60;74.10;;;;;;2463034;55;20966;-69
2023/12/11 09:59:46;;;;;;;3.83;1.42;;;15.60;74.80;;;;;;2265335;56;20954;-69
2023/12/11 10:02:15;;;;;;;3.58;1.58;;;15.60;74.20;;;;;;2254047;55;21073;-70
2023/12/11 10:11:30;;;;;;;5.55;2.03;;;15.60;74.00;;;;;;2268779;55;20946;-69
2023/12/11 10:14:19;;;;;;;4.80;1.83;;;15.60;72.80;;;;;;2228475;57;21415;-69
2023/12/11 10:16:46;;;;;;;3.85;1.50;;;15.60;73.00;;;;;;2273058;55;20983;-70
2023/12/11 10:19:13;;;;;;;6.12;2.95;;;15.60;74.00;;;;;;2265527;56;20956;-70
2023/12/11 10:21:40;;;;;;;8.68;3.78;;;15.60;74.00;;;;;;2260189;55;20978;-70
2023/12/11 10:24:13;;;;;;;8.70;3.60;;;15.60;74.00;;;;;;2264869;55;21188;-70
2023/12/11 10:26:49;;;;;;;7.90;3.10;;;15.60;73.90;;;;;;2495498;55;21008;-70
2023/12/11 10:29:20;;;;;;;4.62;1.80;;;15.60;73.90;;;;;;2247413;56;20979;-70
2023/12/11 10:31:46;;;;;;;4.32;2.00;;;15.60;73.90;;;;;;2457262;55;21039;-70
2023/12/11 10:34:13;;;;;;;4.65;1.52;;;15.60;74.10;;;;;;2482456;55;21515;-69
2023/12/11 10:37:00;;;;;;;3.37;1.33;;;15.60;74.00;;;;;;2495833;55;21432;-69
2023/12/11 10:39:30;;;;;;;3.65;1.48;;;15.60;73.80;;;;;;2286665;56;20972;-69
2023/12/11 10:41:56;;;;;;;3.03;0.80;;;15.50;73.90;;;;;;2296507;55;21015;-69
2023/12/11 10:44:26;;;;;;;1.45;0.57;;;15.60;74.00;;;;;;2536030;54;21054;-70
2023/12/11 10:46:59;;;;;;;2.70;0.80;;;15.60;73.80;;;;;;2536489;54;21004;-69
2023/12/11 10:49:25;;;;;;;5.72;1.60;;;15.60;74.70;;;;;;2299346;55;20929;-69
2023/12/11 10:51:52;;;;;;;7.95;3.62;;;15.60;73.90;;;;;;2526328;54;20956;-70
2023/12/11 10:54:21;;;;;;;7.10;3.45;;;15.60;73.80;;;;;;2517639;54;22016;-69
2023/12/11 10:56:48;;;;;;;5.68;2.15;;;15.70;74.00;;;;;;2530834;54;21037;-70
2023/12/11 10:59:14;;;;;;;5.22;1.92;;;15.60;73.80;;;;;;2268828;55;21042;-69
2023/12/11 11:01:47;;;;;;;3.80;1.60;;;15.70;74.00;;;;;;2529460;54;20962;-69
2023/12/11 11:04:14;;;;;;;3.15;1.37;;;15.70;73.60;;;;;;2292241;56;21382;-70
2023/12/11 11:07:04;;;;;;;2.83;1.02;;;15.70;74.10;;;;;;2269341;55;21038;-69
2023/12/11 11:09:41;;;;;;;4.10;1.45;;;15.70;73.20;;;;;;2299998;55;20964;-70
2023/12/11 11:12:16;;;;;;;16.87;7.53;;;15.70;73.80;;;;;;2299166;55;21078;-70
2023/12/11 11:14:47;;;;;;;9.63;5.05;;;15.70;73.80;;;;;;2299649;55;20975;-70
2023/12/11 11:17:18;;;;;;;5.10;2.25;;;15.70;74.10;;;;;;2297558;55;21908;-69
2023/12/11 11:20:14;;;;;;;3.80;1.58;;;15.80;74.10;;;;;;2289946;56;21010;-70
2023/12/11 11:22:42;;;;;;;4.28;1.40;;;15.80;73.40;;;;;;2536672;54;20984;-69
2023/12/11 11:27:01;;;;;;;2.70;1.00;;;15.80;74.30;;;;;;2294480;55;20963;-68
2023/12/11 11:29:43;;;;;;;1.50;0.60;;;15.80;72.70;;;;;;2300625;55;20995;-69
2023/12/11 11:32:10;;;;;;;1.75;0.60;;;15.80;73.40;;;;;;2518827;54;21478;-70
2023/12/11 11:34:46;;;;;;;1.85;0.60;;;15.80;74.10;;;;;;2536590;54;20955;-70
2023/12/11 11:37:14;;;;;;;2.17;0.55;;;15.90;73.90;;;;;;2299157;56;21668;-69
2023/12/11 11:40:19;;;;;;;1.90;0.60;;;15.80;74.20;;;;;;2536833;54;21333;-70
2023/12/11 11:42:51;;;;;;;2.62;0.45;;;15.80;73.20;;;;;;2300108;55;20967;-70
2023/12/11 11:45:18;;;;;;;;;;;15.80;74.10;;;;;;2299947;56;21053;-68
2023/12/11 11:47:44;;;;;;;2.83;1.10;;;15.90;72.70;;;;;;2524352;54;20116;-69
2023/12/11 11:50:12;;;;;;;3.47;0.80;;;15.80;74.10;;;;;;2536319;54;20936;-69
2023/12/11 11:52:41;;;;;;;2.35;0.70;;;15.80;74.10;;;;;;2533187;54;21069;-69
2023/12/11 11:55:13;;;;;;;1.77;0.75;;;15.80;74.00;;;;;;2523430;54;21027;-69
2023/12/11 11:57:41;;;;;;;4.57;0.98;;;15.80;74.00;;;;;;2299798;55;21049;-70
2023/12/11 12:00:08;;;;;;;2.03;0.70;;;15.80;74.10;;;;;;2265369;55;20938;-70
2023/12/11 12:02:34;;;;;;;2.78;0.68;;;15.80;74.20;;;;;;2298808;55;21316;-69
2023/12/11 12:05:07;;;;;;;1.37;0.40;;;15.80;74.10;;;;;;2536231;54;21431;-69
2023/12/11 12:07:39;;;;;;;1.50;0.50;;;15.90;73.70;;;;;;2535949;54;20962;-70
2023/12/11 12:10:07;;;;;;;1.80;0.60;;;15.90;73.90;;;;;;2536102;54;21039;-69
2023/12/11 12:12:34;;;;;;;1.65;0.60;;;15.90;74.00;;;;;;2535902;54;20967;-70
2023/12/11 12:15:04;;;;;;;1.92;0.60;;;15.90;74.10;;;;;;2299584;56;21019;-69
2023/12/11 12:17:30;;;;;;;1.62;0.60;;;15.90;73.90;;;;;;2536081;54;21244;-69
2023/12/11 12:19:57;;;;;;;1.75;0.50;;;15.90;74.10;;;;;;2299683;56;21291;-70
2023/12/11 12:22:24;;;;;;;1.23;0.40;;;15.90;74.00;;;;;;2299249;55;21023;-70
2023/12/11 12:24:51;;;;;;;2.42;0.60;;;15.90;74.00;;;;;;2299967;56;20971;-69
2023/12/11 12:27:22;;;;;;;1.77;0.60;;;15.90;74.00;;;;;;2299014;56;21804;-70
2023/12/11 12:29:49;;;;;;;2.85;0.60;;;15.90;73.90;;;;;;2299197;55;20963;-69
2023/12/11 12:32:17;;;;;;;2.17;0.70;;;15.90;74.00;;;;;;2536256;54;21031;-69
2023/12/11 12:34:44;;;;;;;2.80;0.82;;;15.90;73.80;;;;;;2535585;54;20947;-69
2023/12/11 12:37:12;;;;;;;2.75;0.82;;;15.90;73.80;;;;;;2488087;55;21019;-70
2023/12/11 12:39:38;;;;;;;1.70;0.70;;;15.90;73.80;;;;;;2443046;55;21484;-70
2023/12/11 12:42:07;;;;;;;2.45;0.82;;;15.90;73.80;;;;;;2487369;55;21364;-69
2023/12/11 12:44:40;;;;;;;2.70;0.90;;;15.90;73.70;;;;;;2464828;55;21934;-70
2023/12/11 12:47:08;;;;;;;3.33;0.80;;;15.90;73.40;;;;;;2488446;55;20923;-70
2023/12/11 12:49:34;;;;;;;2.28;0.57;;;15.90;73.60;;;;;;2260046;55;22571;-70
2023/12/11 12:52:01;;;;;;;3.75;1.17;;;15.90;73.90;;;;;;2259426;55;21141;-69
2023/12/11 12:54:45;;;;;;;2.85;0.77;;;15.90;73.90;;;;;;2259020;56;20962;-73
2023/12/11 12:57:12;;;;;;;3.53;1.00;;;15.90;73.90;;;;;;2270286;56;21054;-70
2023/12/11 12:59:40;;;;;;;6.15;2.67;;;15.90;73.90;;;;;;2488869;55;20962;-71
2023/12/11 13:02:10;;;;;;;7.47;2.37;;;15.90;73.90;;;;;;2486066;55;21912;-69
2023/12/11 13:04:49;;;;;;;6.93;1.98;;;15.90;73.70;;;;;;2232339;56;21002;-68
2023/12/11 13:07:15;;;;;;;9.70;2.47;;;15.90;73.30;;;;;;2503897;54;21584;-70